sensor_id;sensor_type;location;lat;lon;timestamp;P1;durP1;ratioP1;P2;durP2;ratioP2
46651;SDS011;32377;52.182;5.398;2023-08-24T00:00:15;12.23;;;5.20;;
46651;SDS011;32377;52.182;5.398;2023-08-24T00:02:41;9.82;;;5.75;;
46651;SDS011;32377;52.182;5.398;2023-08-24T00:05:07;10.95;;;5.85;;
46651;SDS011;32377;52.182;5.398;2023-08-24T00:07:32;15.30;;;6.07;;
46651;SDS011;32377;52.182;5.398;2023-08-24T00:09:58;10.48;;;6.38;;
46651;SDS011;32377;52.182;5.398;2023-08-24T00:12:24;9.05;;;5.43;;
46651;SDS011;32377;52.182;5.398;2023-08-24T00:14:50;10.77;;;6.05;;
46651;SDS011;32377;52.182;5.398;2023-08-24T00:17:17;12.15;;;6.32;;
46651;SDS011;32377;52.182;5.398;2023-08-24T00:19:42;9.18;;;6.03;;
46651;SDS011;32377;52.182;5.398;2023-08-24T00:22:08;9.02;;;5.72;;
46651;SDS011;32377;52.182;5.398;2023-08-24T00:24:34;8.82;;;6.25;;
46651;SDS011;32377;52.182;5.398;2023-08-24T00:26:59;9.82;;;6.28;;
46651;SDS011;32377;52.182;5.398;2023-08-24T00:29:25;11.25;;;6.47;;
46651;SDS011;32377;52.182;5.398;2023-08-24T00:31:51;15.63;;;7.40;;
46651;SDS011;32377;52.182;5.398;2023-08-24T00:34:16;12.13;;;6.50;;
46651;SDS011;32377;52.182;5.398;2023-08-24T00:36:42;10.57;;;6.72;;
46651;SDS011;32377;52.182;5.398;2023-08-24T00:39:08;19.13;;;7.25;;
46651;SDS011;32377;52.182;5.398;2023-08-24T00:41:33;9.23;;;6.03;;
46651;SDS011;32377;52.182;5.398;2023-08-24T00:43:59;12.85;;;6.13;;
46651;SDS011;32377;52.182;5.398;2023-08-24T00:46:26;11.75;;;6.07;;
46651;SDS011;32377;52.182;5.398;2023-08-24T00:48:53;7.22;;;5.18;;
46651;SDS011;32377;52.182;5.398;2023-08-24T00:51:22;10.02;;;5.72;;
46651;SDS011;32377;52.182;5.398;2023-08-24T00:53:48;9.93;;;6.28;;
46651;SDS011;32377;52.182;5.398;2023-08-24T00:56:14;11.93;;;5.93;;
46651;SDS011;32377;52.182;5.398;2023-08-24T00:58:40;10.45;;;5.95;;
46651;SDS011;32377;52.182;5.398;2023-08-24T01:01:06;10.48;;;6.20;;
46651;SDS011;32377;52.182;5.398;2023-08-24T01:03:32;9.85;;;6.88;;
46651;SDS011;32377;52.182;5.398;2023-08-24T01:05:58;10.65;;;7.00;;
46651;SDS011;32377;52.182;5.398;2023-08-24T01:08:24;14.35;;;6.60;;
46651;SDS011;32377;52.182;5.398;2023-08-24T01:11:00;11.48;;;6.20;;
46651;SDS011;32377;52.182;5.398;2023-08-24T01:13:46;8.88;;;5.70;;
46651;SDS011;32377;52.182;5.398;2023-08-24T01:18:54;10.45;;;6.15;;
46651;SDS011;32377;52.182;5.398;2023-08-24T01:21:25;11.23;;;6.55;;
46651;SDS011;32377;52.182;5.398;2023-08-24T01:26:43;10.82;;;6.55;;
46651;SDS011;32377;52.182;5.398;2023-08-24T01:29:11;11.10;;;7.10;;
46651;SDS011;32377;52.182;5.398;2023-08-24T01:31:36;11.85;;;6.80;;
46651;SDS011;32377;52.182;5.398;2023-08-24T01:34:02;13.18;;;7.22;;
46651;SDS011;32377;52.182;5.398;2023-08-24T01:36:28;12.95;;;6.97;;
46651;SDS011;32377;52.182;5.398;2023-08-24T01:39:04;13.40;;;7.07;;
46651;SDS011;32377;52.182;5.398;2023-08-24T01:41:36;11.23;;;7.25;;
46651;SDS011;32377;52.182;5.398;2023-08-24T01:44:08;10.65;;;7.55;;
46651;SDS011;32377;52.182;5.398;2023-08-24T01:46:37;9.75;;;6.90;;
46651;SDS011;32377;52.182;5.398;2023-08-24T01:49:04;9.70;;;7.10;;
46651;SDS011;32377;52.182;5.398;2023-08-24T01:51:31;11.60;;;6.30;;
46651;SDS011;32377;52.182;5.398;2023-08-24T01:53:57;10.63;;;7.47;;
46651;SDS011;32377;52.182;5.398;2023-08-24T01:56:23;14.50;;;7.25;;
46651;SDS011;32377;52.182;5.398;2023-08-24T01:58:49;10.20;;;6.90;;
46651;SDS011;32377;52.182;5.398;2023-08-24T02:01:15;10.40;;;7.45;;
46651;SDS011;32377;52.182;5.398;2023-08-24T02:03:41;9.40;;;6.13;;
46651;SDS011;32377;52.182;5.398;2023-08-24T02:06:07;12.20;;;7.30;;
46651;SDS011;32377;52.182;5.398;2023-08-24T02:08:33;9.85;;;7.03;;
46651;SDS011;32377;52.182;5.398;2023-08-24T02:10:59;12.85;;;7.60;;
46651;SDS011;32377;52.182;5.398;2023-08-24T02:13:24;12.52;;;8.07;;
46651;SDS011;32377;52.182;5.398;2023-08-24T02:15:50;12.32;;;7.40;;
46651;SDS011;32377;52.182;5.398;2023-08-24T02:18:16;11.25;;;6.95;;
46651;SDS011;32377;52.182;5.398;2023-08-24T02:20:41;11.50;;;7.60;;
46651;SDS011;32377;52.182;5.398;2023-08-24T02:23:07;14.45;;;8.55;;
46651;SDS011;32377;52.182;5.398;2023-08-24T02:25:33;16.70;;;8.68;;
46651;SDS011;32377;52.182;5.398;2023-08-24T02:27:58;13.75;;;9.10;;
46651;SDS011;32377;52.182;5.398;2023-08-24T02:30:24;13.57;;;8.77;;
46651;SDS011;32377;52.182;5.398;2023-08-24T02:32:51;17.15;;;10.27;;
46651;SDS011;32377;52.182;5.398;2023-08-24T02:35:16;15.85;;;10.00;;
46651;SDS011;32377;52.182;5.398;2023-08-24T02:37:43;13.82;;;9.45;;
46651;SDS011;32377;52.182;5.398;2023-08-24T02:40:08;17.75;;;10.15;;
46651;SDS011;32377;52.182;5.398;2023-08-24T02:42:34;12.23;;;9.93;;
46651;SDS011;32377;52.182;5.398;2023-08-24T02:45:00;14.32;;;8.82;;
46651;SDS011;32377;52.182;5.398;2023-08-24T02:47:26;14.70;;;8.77;;
46651;SDS011;32377;52.182;5.398;2023-08-24T02:49:52;14.90;;;8.93;;
46651;SDS011;32377;52.182;5.398;2023-08-24T02:52:17;13.88;;;9.50;;
46651;SDS011;32377;52.182;5.398;2023-08-24T02:54:43;13.82;;;9.10;;
46651;SDS011;32377;52.182;5.398;2023-08-24T02:57:09;13.82;;;9.82;;
46651;SDS011;32377;52.182;5.398;2023-08-24T02:59:34;14.23;;;8.98;;
46651;SDS011;32377;52.182;5.398;2023-08-24T03:02:00;12.65;;;9.70;;
46651;SDS011;32377;52.182;5.398;2023-08-24T03:04:26;15.73;;;9.40;;
46651;SDS011;32377;52.182;5.398;2023-08-24T03:06:52;13.07;;;9.50;;
46651;SDS011;32377;52.182;5.398;2023-08-24T03:09:18;16.00;;;10.30;;
46651;SDS011;32377;52.182;5.398;2023-08-24T03:11:43;16.98;;;10.73;;
46651;SDS011;32377;52.182;5.398;2023-08-24T03:14:09;12.93;;;10.45;;
46651;SDS011;32377;52.182;5.398;2023-08-24T03:16:35;12.82;;;9.10;;
46651;SDS011;32377;52.182;5.398;2023-08-24T03:19:03;14.73;;;9.65;;
46651;SDS011;32377;52.182;5.398;2023-08-24T03:21:28;15.48;;;10.38;;
46651;SDS011;32377;52.182;5.398;2023-08-24T03:23:55;18.08;;;10.48;;
46651;SDS011;32377;52.182;5.398;2023-08-24T03:26:21;17.58;;;9.50;;
46651;SDS011;32377;52.182;5.398;2023-08-24T03:28:48;12.55;;;9.45;;
46651;SDS011;32377;52.182;5.398;2023-08-24T03:31:14;19.83;;;10.85;;
46651;SDS011;32377;52.182;5.398;2023-08-24T03:33:39;14.32;;;10.35;;
46651;SDS011;32377;52.182;5.398;2023-08-24T03:36:05;15.50;;;9.50;;
46651;SDS011;32377;52.182;5.398;2023-08-24T03:38:31;16.63;;;10.48;;
46651;SDS011;32377;52.182;5.398;2023-08-24T03:41:02;12.23;;;10.32;;
46651;SDS011;32377;52.182;5.398;2023-08-24T03:43:32;19.33;;;10.93;;
46651;SDS011;32377;52.182;5.398;2023-08-24T03:45:59;17.17;;;11.30;;
46651;SDS011;32377;52.182;5.398;2023-08-24T03:48:25;13.48;;;9.18;;
46651;SDS011;32377;52.182;5.398;2023-08-24T03:50:55;14.27;;;9.73;;
46651;SDS011;32377;52.182;5.398;2023-08-24T03:53:21;17.58;;;10.82;;
46651;SDS011;32377;52.182;5.398;2023-08-24T03:55:48;18.27;;;10.98;;
46651;SDS011;32377;52.182;5.398;2023-08-24T03:58:14;15.88;;;11.20;;
46651;SDS011;32377;52.182;5.398;2023-08-24T04:00:40;16.70;;;10.57;;
46651;SDS011;32377;52.182;5.398;2023-08-24T04:03:07;18.45;;;11.48;;
46651;SDS011;32377;52.182;5.398;2023-08-24T04:05:33;19.77;;;11.82;;
46651;SDS011;32377;52.182;5.398;2023-08-24T04:07:58;17.02;;;10.00;;
46651;SDS011;32377;52.182;5.398;2023-08-24T04:10:26;22.17;;;12.60;;
46651;SDS011;32377;52.182;5.398;2023-08-24T04:12:51;17.00;;;10.77;;
46651;SDS011;32377;52.182;5.398;2023-08-24T04:15:17;19.50;;;11.60;;
46651;SDS011;32377;52.182;5.398;2023-08-24T04:17:43;16.95;;;11.05;;
46651;SDS011;32377;52.182;5.398;2023-08-24T04:20:09;18.88;;;11.85;;
46651;SDS011;32377;52.182;5.398;2023-08-24T04:22:36;20.38;;;12.25;;
46651;SDS011;32377;52.182;5.398;2023-08-24T04:25:01;18.27;;;10.80;;
46651;SDS011;32377;52.182;5.398;2023-08-24T04:27:27;15.77;;;11.10;;
46651;SDS011;32377;52.182;5.398;2023-08-24T04:29:53;15.65;;;10.63;;
46651;SDS011;32377;52.182;5.398;2023-08-24T04:32:19;19.45;;;11.27;;
46651;SDS011;32377;52.182;5.398;2023-08-24T04:34:44;19.73;;;12.60;;
46651;SDS011;32377;52.182;5.398;2023-08-24T04:37:10;17.02;;;10.68;;
46651;SDS011;32377;52.182;5.398;2023-08-24T04:39:35;14.90;;;10.35;;
46651;SDS011;32377;52.182;5.398;2023-08-24T04:42:02;17.92;;;11.85;;
46651;SDS011;32377;52.182;5.398;2023-08-24T04:44:28;16.23;;;10.80;;
46651;SDS011;32377;52.182;5.398;2023-08-24T04:46:53;18.55;;;11.45;;
46651;SDS011;32377;52.182;5.398;2023-08-24T04:49:19;16.33;;;10.13;;
46651;SDS011;32377;52.182;5.398;2023-08-24T04:51:44;18.38;;;10.73;;
46651;SDS011;32377;52.182;5.398;2023-08-24T04:54:10;15.23;;;10.85;;
46651;SDS011;32377;52.182;5.398;2023-08-24T04:56:36;15.52;;;11.95;;
46651;SDS011;32377;52.182;5.398;2023-08-24T04:59:01;18.60;;;11.65;;
46651;SDS011;32377;52.182;5.398;2023-08-24T05:01:28;17.70;;;11.35;;
46651;SDS011;32377;52.182;5.398;2023-08-24T05:03:57;18.42;;;12.52;;
46651;SDS011;32377;52.182;5.398;2023-08-24T05:06:23;22.67;;;11.52;;
46651;SDS011;32377;52.182;5.398;2023-08-24T05:08:48;13.57;;;10.88;;
46651;SDS011;32377;52.182;5.398;2023-08-24T05:11:16;18.42;;;10.80;;
46651;SDS011;32377;52.182;5.398;2023-08-24T05:13:43;17.15;;;11.75;;
46651;SDS011;32377;52.182;5.398;2023-08-24T05:16:09;19.48;;;11.65;;
46651;SDS011;32377;52.182;5.398;2023-08-24T05:18:36;20.50;;;12.20;;
46651;SDS011;32377;52.182;5.398;2023-08-24T05:21:02;16.08;;;10.65;;
46651;SDS011;32377;52.182;5.398;2023-08-24T05:23:29;17.15;;;11.07;;
46651;SDS011;32377;52.182;5.398;2023-08-24T05:25:58;16.13;;;11.38;;
46651;SDS011;32377;52.182;5.398;2023-08-24T05:28:25;16.75;;;10.02;;
46651;SDS011;32377;52.182;5.398;2023-08-24T05:30:51;19.63;;;10.63;;
46651;SDS011;32377;52.182;5.398;2023-08-24T05:33:17;18.17;;;11.38;;
46651;SDS011;32377;52.182;5.398;2023-08-24T05:35:44;20.00;;;11.93;;
46651;SDS011;32377;52.182;5.398;2023-08-24T05:38:10;16.33;;;11.38;;
46651;SDS011;32377;52.182;5.398;2023-08-24T05:40:35;17.95;;;10.88;;
46651;SDS011;32377;52.182;5.398;2023-08-24T05:43:02;20.65;;;11.77;;
46651;SDS011;32377;52.182;5.398;2023-08-24T05:45:28;17.70;;;10.65;;
46651;SDS011;32377;52.182;5.398;2023-08-24T05:47:54;18.17;;;10.10;;
46651;SDS011;32377;52.182;5.398;2023-08-24T05:50:19;13.93;;;9.52;;
46651;SDS011;32377;52.182;5.398;2023-08-24T05:52:45;16.10;;;10.48;;
46651;SDS011;32377;52.182;5.398;2023-08-24T05:55:10;16.30;;;9.63;;
46651;SDS011;32377;52.182;5.398;2023-08-24T05:57:36;14.57;;;10.32;;
46651;SDS011;32377;52.182;5.398;2023-08-24T06:00:02;16.60;;;10.10;;
46651;SDS011;32377;52.182;5.398;2023-08-24T06:02:34;13.90;;;10.32;;
46651;SDS011;32377;52.182;5.398;2023-08-24T06:04:59;16.73;;;10.20;;
46651;SDS011;32377;52.182;5.398;2023-08-24T06:07:25;17.02;;;10.52;;
46651;SDS011;32377;52.182;5.398;2023-08-24T06:09:51;18.92;;;9.85;;
46651;SDS011;32377;52.182;5.398;2023-08-24T06:12:16;16.80;;;9.32;;
46651;SDS011;32377;52.182;5.398;2023-08-24T06:14:42;15.45;;;9.30;;
46651;SDS011;32377;52.182;5.398;2023-08-24T06:17:07;16.60;;;9.25;;
46651;SDS011;32377;52.182;5.398;2023-08-24T06:19:33;14.15;;;9.10;;
46651;SDS011;32377;52.182;5.398;2023-08-24T06:21:58;17.08;;;10.57;;
46651;SDS011;32377;52.182;5.398;2023-08-24T06:24:24;16.67;;;9.88;;
46651;SDS011;32377;52.182;5.398;2023-08-24T06:26:50;21.50;;;11.05;;
46651;SDS011;32377;52.182;5.398;2023-08-24T06:29:15;14.15;;;10.25;;
46651;SDS011;32377;52.182;5.398;2023-08-24T06:31:41;15.50;;;10.50;;
46651;SDS011;32377;52.182;5.398;2023-08-24T06:34:07;16.98;;;10.23;;
46651;SDS011;32377;52.182;5.398;2023-08-24T06:36:32;18.85;;;10.75;;
46651;SDS011;32377;52.182;5.398;2023-08-24T06:38:58;13.10;;;10.23;;
46651;SDS011;32377;52.182;5.398;2023-08-24T06:41:24;19.50;;;11.55;;
46651;SDS011;32377;52.182;5.398;2023-08-24T06:43:49;15.13;;;10.57;;
46651;SDS011;32377;52.182;5.398;2023-08-24T06:46:15;16.98;;;9.55;;
46651;SDS011;32377;52.182;5.398;2023-08-24T06:48:40;16.52;;;11.18;;
46651;SDS011;32377;52.182;5.398;2023-08-24T06:51:10;23.58;;;10.82;;
46651;SDS011;32377;52.182;5.398;2023-08-24T06:53:36;24.42;;;12.57;;
46651;SDS011;32377;52.182;5.398;2023-08-24T06:56:02;22.33;;;11.52;;
46651;SDS011;32377;52.182;5.398;2023-08-24T06:58:28;16.63;;;11.50;;
46651;SDS011;32377;52.182;5.398;2023-08-24T07:00:54;16.27;;;11.18;;
46651;SDS011;32377;52.182;5.398;2023-08-24T07:03:20;17.13;;;11.23;;
46651;SDS011;32377;52.182;5.398;2023-08-24T07:05:46;21.00;;;11.85;;
46651;SDS011;32377;52.182;5.398;2023-08-24T07:08:12;19.25;;;12.20;;
46651;SDS011;32377;52.182;5.398;2023-08-24T07:10:39;20.50;;;12.13;;
46651;SDS011;32377;52.182;5.398;2023-08-24T07:13:05;15.98;;;12.10;;
46651;SDS011;32377;52.182;5.398;2023-08-24T07:15:32;18.90;;;12.05;;
46651;SDS011;32377;52.182;5.398;2023-08-24T07:18:00;15.23;;;12.10;;
46651;SDS011;32377;52.182;5.398;2023-08-24T07:20:26;18.15;;;12.48;;
46651;SDS011;32377;52.182;5.398;2023-08-24T07:22:52;18.40;;;12.13;;
46651;SDS011;32377;52.182;5.398;2023-08-24T07:25:19;23.88;;;12.90;;
46651;SDS011;32377;52.182;5.398;2023-08-24T07:27:46;20.27;;;12.48;;
46651;SDS011;32377;52.182;5.398;2023-08-24T07:30:12;18.48;;;12.13;;
46651;SDS011;32377;52.182;5.398;2023-08-24T07:32:38;21.35;;;13.23;;
46651;SDS011;32377;52.182;5.398;2023-08-24T07:35:04;22.88;;;12.68;;
46651;SDS011;32377;52.182;5.398;2023-08-24T07:37:31;18.10;;;12.75;;
46651;SDS011;32377;52.182;5.398;2023-08-24T07:39:57;19.17;;;12.55;;
46651;SDS011;32377;52.182;5.398;2023-08-24T07:42:22;21.90;;;13.45;;
46651;SDS011;32377;52.182;5.398;2023-08-24T07:44:48;16.52;;;12.98;;
46651;SDS011;32377;52.182;5.398;2023-08-24T07:47:14;21.00;;;13.48;;
46651;SDS011;32377;52.182;5.398;2023-08-24T07:49:40;24.15;;;14.50;;
46651;SDS011;32377;52.182;5.398;2023-08-24T07:52:12;25.23;;;15.50;;
46651;SDS011;32377;52.182;5.398;2023-08-24T07:54:38;30.02;;;15.45;;
46651;SDS011;32377;52.182;5.398;2023-08-24T07:57:04;20.75;;;15.13;;
46651;SDS011;32377;52.182;5.398;2023-08-24T07:59:31;22.83;;;15.20;;
46651;SDS011;32377;52.182;5.398;2023-08-24T08:01:56;23.48;;;14.57;;
46651;SDS011;32377;52.182;5.398;2023-08-24T08:04:22;23.98;;;13.07;;
46651;SDS011;32377;52.182;5.398;2023-08-24T08:06:48;26.90;;;13.85;;
46651;SDS011;32377;52.182;5.398;2023-08-24T08:09:13;20.02;;;13.38;;
46651;SDS011;32377;52.182;5.398;2023-08-24T08:11:39;26.50;;;13.25;;
46651;SDS011;32377;52.182;5.398;2023-08-24T08:14:05;28.15;;;13.32;;
46651;SDS011;32377;52.182;5.398;2023-08-24T08:16:30;22.02;;;13.23;;
46651;SDS011;32377;52.182;5.398;2023-08-24T08:18:56;25.80;;;12.88;;
46651;SDS011;32377;52.182;5.398;2023-08-24T08:21:22;17.10;;;12.23;;
46651;SDS011;32377;52.182;5.398;2023-08-24T08:23:48;18.25;;;12.20;;
46651;SDS011;32377;52.182;5.398;2023-08-24T08:26:14;18.98;;;11.65;;
46651;SDS011;32377;52.182;5.398;2023-08-24T08:28:41;17.00;;;12.48;;
46651;SDS011;32377;52.182;5.398;2023-08-24T08:31:07;16.98;;;11.93;;
46651;SDS011;32377;52.182;5.398;2023-08-24T08:33:32;16.30;;;11.93;;
46651;SDS011;32377;52.182;5.398;2023-08-24T08:35:58;17.05;;;12.05;;
46651;SDS011;32377;52.182;5.398;2023-08-24T08:38:24;19.40;;;11.77;;
46651;SDS011;32377;52.182;5.398;2023-08-24T08:40:56;18.10;;;12.05;;
46651;SDS011;32377;52.182;5.398;2023-08-24T08:43:26;18.52;;;12.07;;
46651;SDS011;32377;52.182;5.398;2023-08-24T08:45:52;15.80;;;12.10;;
46651;SDS011;32377;52.182;5.398;2023-08-24T08:48:20;16.95;;;12.75;;
46651;SDS011;32377;52.182;5.398;2023-08-24T08:50:49;17.27;;;11.48;;
46651;SDS011;32377;52.182;5.398;2023-08-24T08:53:16;15.98;;;12.57;;
46651;SDS011;32377;52.182;5.398;2023-08-24T08:55:41;15.18;;;11.02;;
46651;SDS011;32377;52.182;5.398;2023-08-24T08:58:09;32.55;;;14.68;;
46651;SDS011;32377;52.182;5.398;2023-08-24T09:00:36;17.15;;;11.80;;
46651;SDS011;32377;52.182;5.398;2023-08-24T09:03:02;16.80;;;11.75;;
46651;SDS011;32377;52.182;5.398;2023-08-24T09:05:30;16.15;;;11.82;;
46651;SDS011;32377;52.182;5.398;2023-08-24T09:07:56;18.25;;;11.65;;
46651;SDS011;32377;52.182;5.398;2023-08-24T09:10:24;15.73;;;11.70;;
46651;SDS011;32377;52.182;5.398;2023-08-24T09:12:50;18.50;;;11.77;;
46651;SDS011;32377;52.182;5.398;2023-08-24T09:15:23;20.50;;;12.70;;
46651;SDS011;32377;52.182;5.398;2023-08-24T09:17:50;16.15;;;11.35;;
46651;SDS011;32377;52.182;5.398;2023-08-24T09:20:16;19.58;;;11.63;;
46651;SDS011;32377;52.182;5.398;2023-08-24T09:22:42;19.58;;;11.82;;
46651;SDS011;32377;52.182;5.398;2023-08-24T09:25:09;12.70;;;10.75;;
46651;SDS011;32377;52.182;5.398;2023-08-24T09:27:35;18.73;;;11.10;;
46651;SDS011;32377;52.182;5.398;2023-08-24T09:30:01;16.25;;;10.18;;
46651;SDS011;32377;52.182;5.398;2023-08-24T09:32:28;15.60;;;9.75;;
46651;SDS011;32377;52.182;5.398;2023-08-24T09:34:54;18.15;;;9.82;;
46651;SDS011;32377;52.182;5.398;2023-08-24T09:37:20;18.48;;;10.70;;
46651;SDS011;32377;52.182;5.398;2023-08-24T09:39:46;17.77;;;9.77;;
46651;SDS011;32377;52.182;5.398;2023-08-24T09:42:13;13.80;;;9.52;;
46651;SDS011;32377;52.182;5.398;2023-08-24T09:44:45;11.98;;;8.43;;
46651;SDS011;32377;52.182;5.398;2023-08-24T09:47:11;13.23;;;9.43;;
46651;SDS011;32377;52.182;5.398;2023-08-24T09:49:37;16.38;;;9.93;;
46651;SDS011;32377;52.182;5.398;2023-08-24T09:52:06;15.80;;;9.07;;
46651;SDS011;32377;52.182;5.398;2023-08-24T09:54:33;13.68;;;10.02;;
46651;SDS011;32377;52.182;5.398;2023-08-24T09:57:02;16.92;;;10.00;;
46651;SDS011;32377;52.182;5.398;2023-08-24T09:59:32;15.32;;;8.52;;
46651;SDS011;32377;52.182;5.398;2023-08-24T10:02:00;13.57;;;9.23;;
46651;SDS011;32377;52.182;5.398;2023-08-24T10:04:29;13.52;;;9.00;;
46651;SDS011;32377;52.182;5.398;2023-08-24T10:07:06;16.80;;;8.80;;
46651;SDS011;32377;52.182;5.398;2023-08-24T10:09:44;14.60;;;9.75;;
46651;SDS011;32377;52.182;5.398;2023-08-24T10:12:20;22.47;;;8.53;;
46651;SDS011;32377;52.182;5.398;2023-08-24T10:14:53;15.68;;;8.48;;
46651;SDS011;32377;52.182;5.398;2023-08-24T10:17:25;19.65;;;9.43;;
46651;SDS011;32377;52.182;5.398;2023-08-24T10:19:51;18.38;;;9.85;;
46651;SDS011;32377;52.182;5.398;2023-08-24T10:22:19;14.48;;;9.65;;
46651;SDS011;32377;52.182;5.398;2023-08-24T10:24:46;16.27;;;9.85;;
46651;SDS011;32377;52.182;5.398;2023-08-24T10:27:13;15.13;;;9.35;;
46651;SDS011;32377;52.182;5.398;2023-08-24T10:29:39;17.05;;;9.15;;
46651;SDS011;32377;52.182;5.398;2023-08-24T10:32:05;14.23;;;8.80;;
46651;SDS011;32377;52.182;5.398;2023-08-24T10:34:33;21.13;;;9.57;;
46651;SDS011;32377;52.182;5.398;2023-08-24T10:37:06;16.33;;;9.93;;
46651;SDS011;32377;52.182;5.398;2023-08-24T10:39:36;16.05;;;9.05;;
46651;SDS011;32377;52.182;5.398;2023-08-24T10:42:03;13.55;;;8.18;;
46651;SDS011;32377;52.182;5.398;2023-08-24T10:44:36;9.63;;;7.32;;
46651;SDS011;32377;52.182;5.398;2023-08-24T10:49:32;18.55;;;9.73;;
46651;SDS011;32377;52.182;5.398;2023-08-24T10:51:58;15.75;;;10.27;;
46651;SDS011;32377;52.182;5.398;2023-08-24T10:54:49;13.07;;;8.90;;
46651;SDS011;32377;52.182;5.398;2023-08-24T10:57:23;14.23;;;10.70;;
46651;SDS011;32377;52.182;5.398;2023-08-24T11:02:31;18.85;;;11.25;;
46651;SDS011;32377;52.182;5.398;2023-08-24T11:05:20;17.80;;;11.80;;
46651;SDS011;32377;52.182;5.398;2023-08-24T11:08:02;18.83;;;11.55;;
46651;SDS011;32377;52.182;5.398;2023-08-24T11:13:07;15.35;;;10.98;;
46651;SDS011;32377;52.182;5.398;2023-08-24T11:18:20;17.58;;;11.68;;
46651;SDS011;32377;52.182;5.398;2023-08-24T11:23:30;15.35;;;9.52;;
46651;SDS011;32377;52.182;5.398;2023-08-24T11:25:59;16.33;;;11.00;;
46651;SDS011;32377;52.182;5.398;2023-08-24T11:28:26;20.40;;;11.57;;
46651;SDS011;32377;52.182;5.398;2023-08-24T11:30:54;23.50;;;12.50;;
46651;SDS011;32377;52.182;5.398;2023-08-24T11:33:27;18.90;;;12.13;;
46651;SDS011;32377;52.182;5.398;2023-08-24T11:35:54;16.60;;;12.95;;
46651;SDS011;32377;52.182;5.398;2023-08-24T11:38:20;27.33;;;13.85;;
46651;SDS011;32377;52.182;5.398;2023-08-24T11:40:46;24.73;;;13.82;;
46651;SDS011;32377;52.182;5.398;2023-08-24T11:43:11;19.77;;;13.60;;
46651;SDS011;32377;52.182;5.398;2023-08-24T11:45:37;26.13;;;13.52;;
46651;SDS011;32377;52.182;5.398;2023-08-24T11:48:05;19.63;;;13.10;;
46651;SDS011;32377;52.182;5.398;2023-08-24T11:50:32;19.25;;;13.63;;
46651;SDS011;32377;52.182;5.398;2023-08-24T11:53:01;17.55;;;12.77;;
46651;SDS011;32377;52.182;5.398;2023-08-24T11:55:27;20.58;;;13.63;;
46651;SDS011;32377;52.182;5.398;2023-08-24T11:57:54;18.40;;;12.93;;
46651;SDS011;32377;52.182;5.398;2023-08-24T12:00:20;18.90;;;13.23;;
46651;SDS011;32377;52.182;5.398;2023-08-24T12:02:47;19.75;;;12.50;;
46651;SDS011;32377;52.182;5.398;2023-08-24T12:05:20;18.73;;;12.85;;
46651;SDS011;32377;52.182;5.398;2023-08-24T12:07:47;16.67;;;11.82;;
46651;SDS011;32377;52.182;5.398;2023-08-24T12:10:13;19.73;;;12.23;;
46651;SDS011;32377;52.182;5.398;2023-08-24T12:12:38;19.42;;;12.52;;
46651;SDS011;32377;52.182;5.398;2023-08-24T12:15:04;16.15;;;10.75;;
46651;SDS011;32377;52.182;5.398;2023-08-24T12:17:30;15.90;;;12.30;;
46651;SDS011;32377;52.182;5.398;2023-08-24T12:20:07;18.90;;;11.52;;
46651;SDS011;32377;52.182;5.398;2023-08-24T12:22:40;18.60;;;11.85;;
46651;SDS011;32377;52.182;5.398;2023-08-24T12:25:06;17.27;;;11.38;;
46651;SDS011;32377;52.182;5.398;2023-08-24T12:27:32;16.13;;;10.43;;
46651;SDS011;32377;52.182;5.398;2023-08-24T12:30:01;16.73;;;11.55;;
46651;SDS011;32377;52.182;5.398;2023-08-24T12:32:30;15.48;;;10.32;;
46651;SDS011;32377;52.182;5.398;2023-08-24T12:35:08;16.58;;;10.77;;
46651;SDS011;32377;52.182;5.398;2023-08-24T12:37:35;17.23;;;11.35;;
46651;SDS011;32377;52.182;5.398;2023-08-24T12:40:02;22.38;;;13.82;;
46651;SDS011;32377;52.182;5.398;2023-08-24T12:42:29;19.42;;;12.02;;
46651;SDS011;32377;52.182;5.398;2023-08-24T12:44:55;19.58;;;10.82;;
46651;SDS011;32377;52.182;5.398;2023-08-24T12:47:21;22.73;;;12.43;;
46651;SDS011;32377;52.182;5.398;2023-08-24T12:49:46;23.08;;;12.25;;
46651;SDS011;32377;52.182;5.398;2023-08-24T12:52:12;20.55;;;13.15;;
46651;SDS011;32377;52.182;5.398;2023-08-24T12:54:38;16.88;;;11.35;;
46651;SDS011;32377;52.182;5.398;2023-08-24T12:57:04;19.52;;;12.05;;
46651;SDS011;32377;52.182;5.398;2023-08-24T12:59:29;23.27;;;13.18;;
46651;SDS011;32377;52.182;5.398;2023-08-24T13:01:55;21.65;;;13.15;;
46651;SDS011;32377;52.182;5.398;2023-08-24T13:04:20;21.08;;;12.30;;
46651;SDS011;32377;52.182;5.398;2023-08-24T13:06:46;21.75;;;13.00;;
46651;SDS011;32377;52.182;5.398;2023-08-24T13:09:12;20.58;;;11.55;;
46651;SDS011;32377;52.182;5.398;2023-08-24T13:11:38;19.42;;;11.63;;
46651;SDS011;32377;52.182;5.398;2023-08-24T13:14:04;19.90;;;11.68;;
46651;SDS011;32377;52.182;5.398;2023-08-24T13:16:30;18.15;;;11.95;;
46651;SDS011;32377;52.182;5.398;2023-08-24T13:18:55;16.40;;;11.38;;
46651;SDS011;32377;52.182;5.398;2023-08-24T13:21:21;15.85;;;11.88;;
46651;SDS011;32377;52.182;5.398;2023-08-24T13:23:47;16.98;;;10.70;;
46651;SDS011;32377;52.182;5.398;2023-08-24T13:26:19;20.30;;;11.45;;
46651;SDS011;32377;52.182;5.398;2023-08-24T13:28:46;17.42;;;10.15;;
46651;SDS011;32377;52.182;5.398;2023-08-24T13:31:12;17.60;;;11.07;;
46651;SDS011;32377;52.182;5.398;2023-08-24T13:33:38;18.52;;;10.27;;
46651;SDS011;32377;52.182;5.398;2023-08-24T13:36:04;13.70;;;9.93;;
46651;SDS011;32377;52.182;5.398;2023-08-24T13:38:30;15.05;;;11.35;;
46651;SDS011;32377;52.182;5.398;2023-08-24T13:40:56;19.00;;;10.52;;
46651;SDS011;32377;52.182;5.398;2023-08-24T13:43:22;18.98;;;13.05;;
46651;SDS011;32377;52.182;5.398;2023-08-24T13:45:47;18.63;;;13.10;;
46651;SDS011;32377;52.182;5.398;2023-08-24T13:48:13;19.45;;;11.85;;
46651;SDS011;32377;52.182;5.398;2023-08-24T13:50:40;19.38;;;13.02;;
46651;SDS011;32377;52.182;5.398;2023-08-24T13:53:06;17.40;;;11.93;;
46651;SDS011;32377;52.182;5.398;2023-08-24T13:55:32;19.58;;;12.80;;
46651;SDS011;32377;52.182;5.398;2023-08-24T13:57:58;25.00;;;14.77;;
46651;SDS011;32377;52.182;5.398;2023-08-24T14:00:25;17.90;;;14.23;;
46651;SDS011;32377;52.182;5.398;2023-08-24T14:02:51;19.35;;;15.82;;
46651;SDS011;32377;52.182;5.398;2023-08-24T14:05:17;23.20;;;15.30;;
46651;SDS011;32377;52.182;5.398;2023-08-24T14:07:42;19.80;;;14.90;;
46651;SDS011;32377;52.182;5.398;2023-08-24T14:10:08;26.13;;;14.60;;
46651;SDS011;32377;52.182;5.398;2023-08-24T14:12:34;23.40;;;17.77;;
46651;SDS011;32377;52.182;5.398;2023-08-24T14:15:00;26.55;;;16.88;;
46651;SDS011;32377;52.182;5.398;2023-08-24T14:17:26;23.90;;;15.23;;
46651;SDS011;32377;52.182;5.398;2023-08-24T14:19:52;25.02;;;15.65;;
46651;SDS011;32377;52.182;5.398;2023-08-24T14:22:17;28.02;;;17.23;;
46651;SDS011;32377;52.182;5.398;2023-08-24T14:24:43;20.73;;;15.25;;
46651;SDS011;32377;52.182;5.398;2023-08-24T14:27:08;23.63;;;17.33;;
46651;SDS011;32377;52.182;5.398;2023-08-24T14:29:34;20.95;;;16.40;;
46651;SDS011;32377;52.182;5.398;2023-08-24T14:32:00;27.17;;;18.33;;
46651;SDS011;32377;52.182;5.398;2023-08-24T14:34:25;27.48;;;19.02;;
46651;SDS011;32377;52.182;5.398;2023-08-24T14:36:51;24.42;;;17.83;;
46651;SDS011;32377;52.182;5.398;2023-08-24T14:39:16;24.10;;;16.25;;
46651;SDS011;32377;52.182;5.398;2023-08-24T14:41:42;27.77;;;18.50;;